createdAt,value
2022-09-13T00:02:28.397Z,16.23
2022-09-13T00:05:34.922Z,16.23
2022-09-13T00:08:44.291Z,16.27
2022-09-13T00:11:50.371Z,16.29
2022-09-13T00:15:07.794Z,16.19
2022-09-13T00:18:16.554Z,16.18
2022-09-13T00:21:25.560Z,16.12
2022-09-13T00:24:31.306Z,16.12
2022-09-13T00:27:39.720Z,16.07
2022-09-13T00:30:53.462Z,16.06
2022-09-13T00:34:06.979Z,16.05
2022-09-13T00:37:33.751Z,16.04
2022-09-13T00:40:41.654Z,16.01
2022-09-13T00:43:51.018Z,15.97
2022-09-13T00:47:12.429Z,15.95
2022-09-13T00:50:27.139Z,15.94
2022-09-13T00:53:35.781Z,15.89
2022-09-13T00:56:52.106Z,15.88
2022-09-13T01:00:11.618Z,15.86
2022-09-13T01:03:26.508Z,15.85
2022-09-13T01:06:40.906Z,15.79
2022-09-13T01:13:20.642Z,15.78
2022-09-13T01:16:34.076Z,15.70
2022-09-13T01:19:45.115Z,15.69
2022-09-13T01:23:31.668Z,15.71
2022-09-13T01:27:17.125Z,15.65
2022-09-13T01:30:40.495Z,15.63
2022-09-13T01:34:14.439Z,15.64
2022-09-13T01:37:39.231Z,15.65
2022-09-13T01:41:11.916Z,15.63
2022-09-13T01:44:41.308Z,15.60
2022-09-13T01:48:02.429Z,15.60
2022-09-13T01:51:19.685Z,15.56
2022-09-13T01:54:48.405Z,15.54
2022-09-13T01:58:04.294Z,15.52
2022-09-13T02:01:22.821Z,15.51
2022-09-13T02:04:46.508Z,15.50
2022-09-13T02:08:06.528Z,15.45
2022-09-13T02:11:14.766Z,15.38
2022-09-13T02:14:29.942Z,15.34
2022-09-13T02:18:09.656Z,15.33
2022-09-13T02:21:38.248Z,15.30
2022-09-13T02:25:09.656Z,15.23
2022-09-13T02:28:25.864Z,15.22
2022-09-13T02:31:46.404Z,15.21
2022-09-13T02:35:00.802Z,15.16
2022-09-13T02:38:27.437Z,15.17
2022-09-13T02:42:13.563Z,15.13
2022-09-13T02:45:32.510Z,15.07
2022-09-13T02:48:55.613Z,15.04
2022-09-13T02:52:14.405Z,15.01
2022-09-13T02:55:36.455Z,14.99
2022-09-13T02:59:29.614Z,14.94
2022-09-13T03:02:48.807Z,14.89
2022-09-13T03:06:04.748Z,14.83
2022-09-13T03:13:08.198Z,14.74
2022-09-13T03:16:33.464Z,14.73
2022-09-13T03:20:05.721Z,14.71
2022-09-13T03:23:31.308Z,14.70
2022-09-13T03:26:49.852Z,14.70
2022-09-13T03:30:02.568Z,14.67
2022-09-13T03:33:17.541Z,14.62
2022-09-13T03:36:32.973Z,14.58
2022-09-13T03:39:54.164Z,14.54
2022-09-13T03:43:09.216Z,14.52
2022-09-13T03:46:23.428Z,14.49
2022-09-13T03:49:35.032Z,14.43
2022-09-13T03:52:46.605Z,14.45
2022-09-13T03:56:00.475Z,14.44
2022-09-13T03:59:07.561Z,14.46
2022-09-13T04:02:22.340Z,14.42
2022-09-13T04:05:38.366Z,14.43
2022-09-13T04:08:54.269Z,14.41
2022-09-13T04:12:08.273Z,14.38
2022-09-13T04:15:24.540Z,14.36
2022-09-13T04:18:49.675Z,14.38
2022-09-13T04:25:48.617Z,14.32
2022-09-13T04:29:00.749Z,14.27
2022-09-13T04:32:18.381Z,14.27
2022-09-13T04:35:46.152Z,14.29
2022-09-13T04:38:53.571Z,14.38
2022-09-13T04:42:03.313Z,14.50
2022-09-13T04:45:11.534Z,14.51
2022-09-13T04:48:17.527Z,14.44
2022-09-13T04:51:26.410Z,14.48
2022-09-13T04:54:33.281Z,14.49
2022-09-13T04:57:39.446Z,14.58
2022-09-13T05:00:49.145Z,14.59
2022-09-13T05:03:57.606Z,14.63
2022-09-13T05:07:07.955Z,14.66
2022-09-13T05:10:19.409Z,14.70
2022-09-13T05:13:35.255Z,14.67
2022-09-13T05:16:48.439Z,14.67
2022-09-13T05:19:57.489Z,14.68
2022-09-13T05:23:55.878Z,14.76
2022-09-13T05:27:07.158Z,14.77
2022-09-13T05:30:23.870Z,14.78
2022-09-13T05:33:35.650Z,14.82
2022-09-13T05:36:53.907Z,14.87
2022-09-13T05:40:11.703Z,14.91
2022-09-13T05:43:23.629Z,14.93
2022-09-13T05:50:09.440Z,14.98
2022-09-13T05:53:14.899Z,15.00
2022-09-13T05:56:23.202Z,15.05
2022-09-13T05:59:31.772Z,15.13
2022-09-13T06:02:38.303Z,15.23
2022-09-13T06:05:45.747Z,15.33
2022-09-13T06:08:56.392Z,15.40
2022-09-13T06:12:18.050Z,15.54
2022-09-13T06:15:29.974Z,15.66
2022-09-13T06:19:02.553Z,15.73
2022-09-13T06:22:23.314Z,15.79
2022-09-13T06:25:48.187Z,15.85
2022-09-13T06:29:26.333Z,15.92
2022-09-13T06:40:39.410Z,16.08
2022-09-13T06:44:36.016Z,16.25
2022-09-13T06:48:13.476Z,16.57
2022-09-13T06:55:13.684Z,17.29
2022-09-13T06:58:45.061Z,17.76
2022-09-13T07:14:38.314Z,21.27
2022-09-13T07:21:48.092Z,20.61
2022-09-13T07:24:59.171Z,20.00
2022-09-13T07:28:10.675Z,19.58
2022-09-13T07:31:25.905Z,19.18
2022-09-13T07:34:50.535Z,18.97
2022-09-13T07:38:02.429Z,18.72
2022-09-13T07:41:20.576Z,18.73
2022-09-13T07:44:27.956Z,18.83
2022-09-13T07:47:39.163Z,18.95
2022-09-13T07:51:08.570Z,19.09
2022-09-13T07:54:22.791Z,19.31
2022-09-13T07:57:30.930Z,19.49
2022-09-13T08:00:37.585Z,19.66
2022-09-13T08:03:43.742Z,19.78
2022-09-13T08:07:11.232Z,19.95
2022-09-13T08:10:25.285Z,20.04
2022-09-13T08:13:38.679Z,20.14
2022-09-13T08:16:51.147Z,20.25
2022-09-13T08:20:06.411Z,20.31
2022-09-13T08:23:17.695Z,20.36
2022-09-13T08:26:30.107Z,20.50
2022-09-13T08:29:41.129Z,20.60
2022-09-13T08:32:47.556Z,20.82
2022-09-13T08:36:00.271Z,20.96
2022-09-13T08:39:14.225Z,21.20
2022-09-13T08:42:34.414Z,21.49
2022-09-13T08:45:42.599Z,21.64
2022-09-13T08:48:53.331Z,21.78
2022-09-13T08:52:04.379Z,21.95
2022-09-13T08:55:24.550Z,22.00
2022-09-13T08:58:47.025Z,21.95
2022-09-13T09:02:06.725Z,22.11
2022-09-13T09:05:34.573Z,22.30
2022-09-13T09:08:47.598Z,22.56
2022-09-13T09:12:19.684Z,22.68
2022-09-13T09:15:45.961Z,22.77
2022-09-13T09:19:00.992Z,23.02
2022-09-13T09:22:20.719Z,23.27
2022-09-13T09:25:34.705Z,23.38
2022-09-13T09:28:46.615Z,23.27
2022-09-13T09:32:18.893Z,23.26
2022-09-13T09:35:47.268Z,23.44
2022-09-13T09:38:58.555Z,23.78
2022-09-13T09:42:15.679Z,23.88
2022-09-13T09:45:30.654Z,23.87
2022-09-13T09:48:47.978Z,23.85
2022-09-13T09:51:57.516Z,23.69
2022-09-13T09:55:15.965Z,23.54
2022-09-13T09:58:44.152Z,23.35
2022-09-13T10:01:59.726Z,23.24
2022-09-13T10:05:15.836Z,23.24
2022-09-13T10:08:32.555Z,23.33
2022-09-13T10:12:08.722Z,23.44
2022-09-13T10:15:47.648Z,23.68
2022-09-13T10:19:35.508Z,24.00
2022-09-13T10:22:43.814Z,24.34
2022-09-13T10:26:04.709Z,24.71
2022-09-13T10:29:13.827Z,25.05
2022-09-13T10:32:20.295Z,25.46
2022-09-13T10:35:32.118Z,25.76
2022-09-13T10:38:47.509Z,26.12
2022-09-13T10:42:03.391Z,26.15
2022-09-13T10:45:16.347Z,26.18
2022-09-13T10:48:41.630Z,26.12
2022-09-13T10:51:50.189Z,26.16
2022-09-13T10:54:58.871Z,26.28
2022-09-13T10:58:26.235Z,26.37
2022-09-13T11:01:48.684Z,26.55
2022-09-13T11:05:14.807Z,26.82
2022-09-13T11:08:53.746Z,27.09
2022-09-13T11:12:14.856Z,27.02
2022-09-13T11:15:34.666Z,27.03
2022-09-13T11:19:17.474Z,27.04
2022-09-13T11:22:49.644Z,27.00
2022-09-13T11:26:25.409Z,27.13
2022-09-13T11:33:36.997Z,27.60
2022-09-13T11:36:59.171Z,27.46
2022-09-13T11:40:27.956Z,27.34
2022-09-13T11:43:50.178Z,27.04
2022-09-13T11:47:10.899Z,27.14
2022-09-13T11:50:40.652Z,27.25
2022-09-13T11:54:01.322Z,27.20
2022-09-13T11:57:13.251Z,27.13
2022-09-13T12:00:27.779Z,27.20
2022-09-13T12:03:41.114Z,27.28
2022-09-13T12:06:52.091Z,27.51
2022-09-13T12:10:04.507Z,27.69
2022-09-13T12:13:25.418Z,27.91
2022-09-13T12:16:47.669Z,28.03
2022-09-13T12:20:01.078Z,28.16
2022-09-13T12:23:18.666Z,28.16
2022-09-13T12:26:31.632Z,27.94
2022-09-13T12:29:43.106Z,27.65
2022-09-13T12:32:58.710Z,27.39
2022-09-13T12:36:23.669Z,27.38
2022-09-13T12:39:44.844Z,27.51
2022-09-13T12:43:12.990Z,27.92
2022-09-13T12:46:46.202Z,28.22
2022-09-13T12:50:45.933Z,28.33
2022-09-13T12:54:14.445Z,28.34
2022-09-13T12:57:35.520Z,28.23
2022-09-13T13:00:51.390Z,28.09
2022-09-13T13:04:02.953Z,28.19
2022-09-13T13:07:28.037Z,28.39
2022-09-13T13:10:41.201Z,28.74
2022-09-13T13:13:49.443Z,28.80
2022-09-13T13:16:57.463Z,28.60
2022-09-13T13:20:28.234Z,28.30
2022-09-13T13:23:45.385Z,28.01
2022-09-13T13:27:03.700Z,27.76
2022-09-13T13:30:45.837Z,27.51
2022-09-13T13:33:55.211Z,27.45
2022-09-13T13:37:06.543Z,27.53
2022-09-13T13:40:44.654Z,27.75
2022-09-13T13:43:51.377Z,28.01
2022-09-13T13:47:19.512Z,28.29
2022-09-13T13:50:37.581Z,28.36
2022-09-13T13:53:51.119Z,28.22
2022-09-13T13:57:00.639Z,27.98
2022-09-13T14:00:39.940Z,27.81
2022-09-13T14:04:25.565Z,27.60
2022-09-13T14:08:04.993Z,27.39
2022-09-13T14:11:24.004Z,27.42
2022-09-13T14:14:58.604Z,28.17
2022-09-13T14:18:28.200Z,28.29
2022-09-13T14:21:38.006Z,27.97
2022-09-13T14:24:50.160Z,27.81
2022-09-13T14:28:04.779Z,27.56
2022-09-13T14:31:21.620Z,27.29
2022-09-13T14:34:32.609Z,27.17
2022-09-13T14:37:46.476Z,27.37
2022-09-13T14:40:56.503Z,27.44
2022-09-13T14:44:25.079Z,27.43
2022-09-13T14:47:39.554Z,27.44
2022-09-13T14:50:53.297Z,27.49
2022-09-13T14:54:05.120Z,27.33
2022-09-13T14:57:20.973Z,27.27
2022-09-13T15:00:28.414Z,27.26
2022-09-13T15:03:35.287Z,27.21
2022-09-13T15:06:45.092Z,27.04
2022-09-13T15:09:53.402Z,26.84
2022-09-13T15:13:13.480Z,26.67
2022-09-13T15:16:32.437Z,26.50
2022-09-13T15:19:51.202Z,26.32
2022-09-13T15:22:59.830Z,26.17
2022-09-13T15:26:10.433Z,26.07
2022-09-13T15:29:22.157Z,25.94
2022-09-13T15:32:36.889Z,25.84
2022-09-13T15:35:46.575Z,25.75
2022-09-13T15:39:04.218Z,25.69
2022-09-13T15:42:11.029Z,25.63
2022-09-13T15:45:20.321Z,25.61
2022-09-13T15:48:30.984Z,25.57
2022-09-13T15:51:39.722Z,25.54
2022-09-13T15:54:45.849Z,25.49
2022-09-13T15:57:52.754Z,25.48
2022-09-13T16:01:03.843Z,25.44
2022-09-13T16:04:11.390Z,25.41
2022-09-13T16:07:29.798Z,25.40
2022-09-13T16:18:14.818Z,25.25
2022-09-13T16:25:33.981Z,25.10
2022-09-13T16:28:42.381Z,25.03
2022-09-13T16:31:49.676Z,24.94
2022-09-13T16:35:00.784Z,24.86
2022-09-13T16:38:11.629Z,24.79
2022-09-13T16:41:18.224Z,24.70
2022-09-13T16:44:26.743Z,24.60
2022-09-13T16:47:37.000Z,24.53
2022-09-13T16:50:46.723Z,24.44
2022-09-13T16:53:56.334Z,24.35
2022-09-13T16:57:01.867Z,24.28
2022-09-13T17:00:12.542Z,24.20
2022-09-13T17:03:18.768Z,24.12
2022-09-13T17:06:30.611Z,24.06
2022-09-13T17:09:38.268Z,24.01
2022-09-13T17:12:52.794Z,23.95
2022-09-13T17:16:24.195Z,23.89
2022-09-13T17:23:44.033Z,23.70
2022-09-13T17:26:58.522Z,23.61
2022-09-13T17:30:15.800Z,23.54
2022-09-13T17:33:30.441Z,23.46
2022-09-13T17:36:44.991Z,23.36
2022-09-13T17:39:53.606Z,23.27
2022-09-13T17:43:03.485Z,23.18
2022-09-13T17:46:15.681Z,23.11
2022-09-13T17:49:21.992Z,23.03
2022-09-13T17:52:31.491Z,22.95
2022-09-13T17:55:41.203Z,22.88
2022-09-13T17:58:51.771Z,22.79
2022-09-13T18:02:01.562Z,22.72
2022-09-13T18:05:19.133Z,22.63
2022-09-13T18:08:32.171Z,22.59
2022-09-13T18:11:45.424Z,22.50
2022-09-13T18:14:59.336Z,22.44
2022-09-13T18:18:08.371Z,22.38
2022-09-13T18:21:44.430Z,22.27
2022-09-13T18:24:57.915Z,22.17
2022-09-13T18:28:08.478Z,22.12
2022-09-13T18:31:25.024Z,22.04
2022-09-13T18:34:43.602Z,21.97
2022-09-13T18:37:49.975Z,21.92
2022-09-13T18:41:09.857Z,21.83
2022-09-13T18:44:23.717Z,21.75
2022-09-13T18:47:36.115Z,21.64
2022-09-13T18:50:45.653Z,21.59
2022-09-13T18:53:57.121Z,21.54
2022-09-13T18:57:07.276Z,21.51
2022-09-13T19:00:23.210Z,21.49
2022-09-13T19:03:37.499Z,21.49
2022-09-13T19:06:49.328Z,21.44
2022-09-13T19:09:55.477Z,21.40
2022-09-13T19:13:11.679Z,21.35
2022-09-13T19:16:21.452Z,21.34
2022-09-13T19:19:31.619Z,21.31
2022-09-13T19:22:43.219Z,21.32
2022-09-13T19:25:52.759Z,21.35
2022-09-13T19:29:06.601Z,21.40
2022-09-13T19:32:19.434Z,21.38
2022-09-13T19:35:28.353Z,21.39
2022-09-13T19:38:37.385Z,21.38
2022-09-13T19:41:47.267Z,21.40
2022-09-13T19:44:57.818Z,21.35
2022-09-13T19:51:34.001Z,21.30
2022-09-13T19:54:43.639Z,21.24
2022-09-13T19:57:59.378Z,21.19
2022-09-13T20:01:07.569Z,21.16
2022-09-13T20:04:19.000Z,21.16
2022-09-13T20:07:33.566Z,21.12
2022-09-13T20:10:44.279Z,21.08
2022-09-13T20:13:53.808Z,21.08
2022-09-13T20:17:05.909Z,21.04
2022-09-13T20:20:13.714Z,20.99
2022-09-13T20:23:24.892Z,20.92
2022-09-13T20:26:32.526Z,20.88
2022-09-13T20:29:45.009Z,20.83
2022-09-13T20:33:15.863Z,20.77
2022-09-13T20:36:25.900Z,20.73
2022-09-13T20:39:44.670Z,20.63
2022-09-13T20:42:57.187Z,20.59
2022-09-13T20:46:06.801Z,20.59
2022-09-13T20:49:21.686Z,20.60
2022-09-13T20:52:34.714Z,20.61
2022-09-13T20:56:08.602Z,20.56
2022-09-13T21:02:59.714Z,20.49
2022-09-13T21:06:47.864Z,20.43
2022-09-13T21:10:02.894Z,20.35
2022-09-13T21:13:28.792Z,20.32
2022-09-13T21:16:41.602Z,20.33
2022-09-13T21:20:02.308Z,20.30
2022-09-13T21:23:07.942Z,20.28
2022-09-13T21:26:16.129Z,20.26
2022-09-13T21:29:24.243Z,20.28
2022-09-13T21:32:32.490Z,20.26
2022-09-13T21:35:41.612Z,20.27
2022-09-13T21:38:49.016Z,20.27
2022-09-13T21:41:55.532Z,20.26
2022-09-13T21:45:04.585Z,20.26
2022-09-13T21:48:10.937Z,20.27
2022-09-13T21:51:20.645Z,20.24
2022-09-13T21:54:33.089Z,20.22
2022-09-13T21:57:39.898Z,20.21
2022-09-13T22:00:48.442Z,20.19
2022-09-13T22:03:57.218Z,20.19
2022-09-13T22:07:03.418Z,20.22
2022-09-13T22:10:10.604Z,20.19
2022-09-13T22:13:17.522Z,20.20
2022-09-13T22:16:35.568Z,20.21
2022-09-13T22:19:41.887Z,20.19
2022-09-13T22:22:54.589Z,20.16
2022-09-13T22:26:01.812Z,20.08
2022-09-13T22:29:10.930Z,20.06
2022-09-13T22:32:23.973Z,20.04
2022-09-13T22:35:33.219Z,20.02
2022-09-13T22:38:44.046Z,20.04
2022-09-13T22:41:52.723Z,20.08
2022-09-13T22:45:09.239Z,20.07
2022-09-13T22:48:20.585Z,20.05
2022-09-13T22:51:29.832Z,20.02
2022-09-13T22:54:39.155Z,20.02
2022-09-13T22:57:47.759Z,20.00
2022-09-13T23:01:08.848Z,19.98
2022-09-13T23:04:17.712Z,19.98
2022-09-13T23:07:31.719Z,19.96
2022-09-13T23:10:43.343Z,19.93
2022-09-13T23:13:51.753Z,19.94
2022-09-13T23:16:59.312Z,19.89
2022-09-13T23:20:11.462Z,19.87
2022-09-13T23:23:17.549Z,19.83
2022-09-13T23:26:26.330Z,19.78
2022-09-13T23:29:32.652Z,19.73
2022-09-13T23:32:39.163Z,19.69
2022-09-13T23:35:48.468Z,19.67
2022-09-13T23:38:57.062Z,19.66
2022-09-13T23:42:05.112Z,19.61
2022-09-13T23:45:12.053Z,19.62
2022-09-13T23:48:18.657Z,19.61
2022-09-13T23:51:28.576Z,19.58
2022-09-13T23:54:35.399Z,19.59
2022-09-13T23:57:42.236Z,19.57
